Aérodrome :
LOGIN :

S'inscrire | Disclaimer

   EN    FR    IT 

 










Légende :    VFR   VFR Marginal   IFR   IFR Intensif   IFR Très Intensif
Visi : 
Plafond : 
>= 8 km
>= 3000ft
5 à 8 km
1000 à 3000 ft
1500m à 5 km
500 à 1000 ft
800 à 1500m
200 à 500 ft
< 800m
< 200 ft
Symboles :   Orages  Brouillard  Fortes neiges  Fortes précipitations  Vent > 20 kt
SIGMETs :   Divers  Orages  Givrage  Turbulence  Onde Orograph.  Cendres Volcan.







- Altitude de l'aérodrome : 256 ft
- Code IATA : CFR
- Voir les cartes d'approche


LFRK - Caen

DERNIER METAR :
  • 151200Z AUTO 14008KT CAVOK 16/12 Q1020 NOSIG

METARs EXPIRÉS :
  • 151130Z AUTO 14006KT CAVOK 15/12 Q1020 NOSIG
  • 151100Z AUTO 14006KT CAVOK 13/12 Q1020 NOSIG
  • 151030Z AUTO 14006KT 7000 NSC 12/11 Q1021 NOSIG
  • 151000Z AUTO 15005KT 5000 BR VV/// 10/10 Q1021 BECMG SCT008
  • 150930Z AUTO 13006KT 0350 0300 R31/M0200N FG VV/// 09/09 Q1021 BECMG 6000 NSW SCT008

TAF TAF LFRK
Valide du 15 à 12h jusqu'au 15 à 21h UTC


151100Z 1512/1521 14007KT CAVOK
BECMG 1519/1521 3000 BR
Météo : +33 2 31 26 68 11
Pas de NOTAMs connus pour ce terrain.



MET'MAP, la Météo Aéronautique d'un coup d'oeil ! - Copyright ORBIFLY Décembre 2007 - Disclaimer

ORBIFLY MET'MAP TEAM :

Programmation & Développement : Alexandra Zaïnal
Conception & Développement : Baudouin d'Aumeries
Co-Programmation & Développement : Marc-Olivier Méhu
Soutien technique & logistique : Manuel Goepfert

Contact : metmap@orbifly.com




SOURCES & CREDITS :

   NOAA